sensor_id;sensor_type;location;lat;lon;timestamp;pressure;altitude;pressure_sealevel;temperature;humidity
83697;BME280;73677;54.530;18.484;2024-01-30T00:02:21;102408.97;;;1.65;80.57
83697;BME280;73677;54.530;18.484;2024-01-30T00:04:50;102408.41;;;1.51;80.89
83697;BME280;73677;54.530;18.484;2024-01-30T00:07:18;102415.84;;;1.38;81.93
83697;BME280;73677;54.530;18.484;2024-01-30T00:09:49;102408.47;;;1.28;82.40
83697;BME280;73677;54.530;18.484;2024-01-30T00:12:18;102409.63;;;1.15;82.59
83697;BME280;73677;54.530;18.484;2024-01-30T00:14:46;102377.28;;;0.91;83.06
83697;BME280;73677;54.530;18.484;2024-01-30T00:17:20;102412.97;;;1.07;83.36
83697;BME280;73677;54.530;18.484;2024-01-30T00:19:49;102412.84;;;0.98;83.70
83697;BME280;73677;54.530;18.484;2024-01-30T00:22:18;102407.19;;;0.90;84.15
83697;BME280;73677;54.530;18.484;2024-01-30T00:24:48;102409.91;;;0.90;83.86
83697;BME280;73677;54.530;18.484;2024-01-30T00:27:17;102406.97;;;0.81;84.15
83697;BME280;73677;54.530;18.484;2024-01-30T00:29:46;102411.50;;;0.81;84.00
83697;BME280;73677;54.530;18.484;2024-01-30T00:32:14;102409.56;;;0.83;84.54
83697;BME280;73677;54.530;18.484;2024-01-30T00:34:43;102406.97;;;0.81;84.62
83697;BME280;73677;54.530;18.484;2024-01-30T00:37:12;102407.72;;;0.72;84.80
83697;BME280;73677;54.530;18.484;2024-01-30T00:39:41;102404.75;;;0.64;85.05
83697;BME280;73677;54.530;18.484;2024-01-30T00:42:11;102402.78;;;0.66;85.23
83697;BME280;73677;54.530;18.484;2024-01-30T00:44:40;102400.09;;;0.66;84.88
83697;BME280;73677;54.530;18.484;2024-01-30T00:47:08;102401.66;;;0.69;85.15
83697;BME280;73677;54.530;18.484;2024-01-30T00:49:37;102401.66;;;0.69;84.46
83697;BME280;73677;54.530;18.484;2024-01-30T00:52:06;102398.25;;;0.67;85.41
83697;BME280;73677;54.530;18.484;2024-01-30T00:54:35;102401.28;;;0.73;84.95
83697;BME280;73677;54.530;18.484;2024-01-30T00:57:04;102401.06;;;0.76;84.70
83697;BME280;73677;54.530;18.484;2024-01-30T00:59:34;102402.78;;;0.66;84.91
83697;BME280;73677;54.530;18.484;2024-01-30T01:02:03;102395.28;;;0.59;85.62
83697;BME280;73677;54.530;18.484;2024-01-30T01:04:32;102399.97;;;0.57;85.82
83697;BME280;73677;54.530;18.484;2024-01-30T01:07:01;102392.72;;;0.46;85.94
83697;BME280;73677;54.530;18.484;2024-01-30T01:09:30;102392.56;;;0.48;86.46
83697;BME280;73677;54.530;18.484;2024-01-30T01:11:58;102384.09;;;0.41;86.54
83697;BME280;73677;54.530;18.484;2024-01-30T01:14:27;102374.63;;;0.35;86.47
83697;BME280;73677;54.530;18.484;2024-01-30T01:16:57;102353.59;;;0.28;86.07
83697;BME280;73677;54.530;18.484;2024-01-30T01:19:28;102382.50;;;0.61;85.61
83697;BME280;73677;54.530;18.484;2024-01-30T01:21:56;102377.19;;;0.81;84.45
83697;BME280;73677;54.530;18.484;2024-01-30T01:24:25;102374.69;;;0.90;83.88
83697;BME280;73677;54.530;18.484;2024-01-30T01:26:54;102381.72;;;0.92;84.30
83697;BME280;73677;54.530;18.484;2024-01-30T01:29:24;102385.31;;;0.81;84.60
83697;BME280;73677;54.530;18.484;2024-01-30T01:31:57;102394.03;;;0.74;84.79
83697;BME280;73677;54.530;18.484;2024-01-30T01:34:26;102385.94;;;0.63;85.24
83697;BME280;73677;54.530;18.484;2024-01-30T01:36:57;102390.84;;;0.58;86.06
83697;BME280;73677;54.530;18.484;2024-01-30T01:39:26;102384.72;;;0.56;85.63
83697;BME280;73677;54.530;18.484;2024-01-30T01:41:54;102379.91;;;0.59;85.90
83697;BME280;73677;54.530;18.484;2024-01-30T01:44:23;102377.69;;;0.64;85.93
83697;BME280;73677;54.530;18.484;2024-01-30T01:46:52;102365.00;;;0.87;84.71
83697;BME280;73677;54.530;18.484;2024-01-30T01:49:24;102344.22;;;0.76;84.59
83697;BME280;73677;54.530;18.484;2024-01-30T01:51:55;102345.31;;;0.85;84.13
83697;BME280;73677;54.530;18.484;2024-01-30T01:54:25;102372.47;;;0.95;84.54
83697;BME280;73677;54.530;18.484;2024-01-30T01:56:55;102356.41;;;0.82;84.54
83697;BME280;73677;54.530;18.484;2024-01-30T01:59:23;102367.22;;;0.82;84.78
83697;BME280;73677;54.530;18.484;2024-01-30T02:01:52;102366.00;;;0.75;85.36
83697;BME280;73677;54.530;18.484;2024-01-30T02:04:23;102378.06;;;0.71;85.68
83697;BME280;73677;54.530;18.484;2024-01-30T02:06:52;102370.44;;;0.76;85.13
83697;BME280;73677;54.530;18.484;2024-01-30T02:09:21;102347.94;;;0.64;85.16
83697;BME280;73677;54.530;18.484;2024-01-30T02:11:50;102367.34;;;0.80;85.52
83697;BME280;73677;54.530;18.484;2024-01-30T02:14:19;102353.44;;;0.74;84.84
83697;BME280;73677;54.530;18.484;2024-01-30T02:16:47;102351.06;;;1.03;84.24
83697;BME280;73677;54.530;18.484;2024-01-30T02:19:16;102354.59;;;1.14;83.35
83697;BME280;73677;54.530;18.484;2024-01-30T02:21:46;102321.81;;;0.85;83.35
83697;BME280;73677;54.530;18.484;2024-01-30T02:24:15;102343.09;;;0.90;83.84
83697;BME280;73677;54.530;18.484;2024-01-30T02:26:44;102353.53;;;0.95;84.70
83697;BME280;73677;54.530;18.484;2024-01-30T02:29:12;102348.84;;;0.97;84.38
83697;BME280;73677;54.530;18.484;2024-01-30T02:31:41;102346.13;;;1.08;83.83
83697;BME280;73677;54.530;18.484;2024-01-30T02:34:10;102349.31;;;1.13;83.71
83697;BME280;73677;54.530;18.484;2024-01-30T02:36:38;102352.97;;;1.23;82.90
83697;BME280;73677;54.530;18.484;2024-01-30T02:39:12;102344.41;;;1.07;83.16
83697;BME280;73677;54.530;18.484;2024-01-30T02:41:40;102360.16;;;1.02;84.04
83697;BME280;73677;54.530;18.484;2024-01-30T02:44:09;102359.22;;;0.92;83.73
83697;BME280;73677;54.530;18.484;2024-01-30T02:46:38;102360.19;;;0.79;84.58
83697;BME280;73677;54.530;18.484;2024-01-30T02:49:06;102355.81;;;0.78;84.81
83697;BME280;73677;54.530;18.484;2024-01-30T02:51:35;102351.00;;;0.71;85.21
83697;BME280;73677;54.530;18.484;2024-01-30T02:54:04;102352.00;;;0.59;85.10
83697;BME280;73677;54.530;18.484;2024-01-30T02:56:34;102367.13;;;0.50;86.23
83697;BME280;73677;54.530;18.484;2024-01-30T02:59:03;102363.81;;;0.47;86.96
83697;BME280;73677;54.530;18.484;2024-01-30T03:01:32;102363.56;;;0.38;86.58
83697;BME280;73677;54.530;18.484;2024-01-30T03:04:01;102336.88;;;0.12;86.91
83697;BME280;73677;54.530;18.484;2024-01-30T03:06:29;102368.09;;;0.27;86.86
83697;BME280;73677;54.530;18.484;2024-01-30T03:08:58;102361.09;;;0.24;88.04
83697;BME280;73677;54.530;18.484;2024-01-30T03:11:27;102371.44;;;0.30;87.11
83697;BME280;73677;54.530;18.484;2024-01-30T03:13:57;102368.97;;;0.27;86.76
83697;BME280;73677;54.530;18.484;2024-01-30T03:16:25;102363.41;;;0.18;88.13
83697;BME280;73677;54.530;18.484;2024-01-30T03:18:54;102356.75;;;0.11;88.31
83697;BME280;73677;54.530;18.484;2024-01-30T03:21:22;102363.28;;;0.08;88.51
83697;BME280;73677;54.530;18.484;2024-01-30T03:23:51;102356.28;;;0.06;88.47
83697;BME280;73677;54.530;18.484;2024-01-30T03:26:20;102364.13;;;-0.03;88.90
83697;BME280;73677;54.530;18.484;2024-01-30T03:28:49;102362.44;;;0.08;88.49
83697;BME280;73677;54.530;18.484;2024-01-30T03:31:19;102343.38;;;-0.02;88.60
83697;BME280;73677;54.530;18.484;2024-01-30T03:33:48;102352.47;;;0.08;87.74
83697;BME280;73677;54.530;18.484;2024-01-30T03:36:17;102351.25;;;0.12;88.45
83697;BME280;73677;54.530;18.484;2024-01-30T03:38:45;102342.75;;;0.06;87.78
83697;BME280;73677;54.530;18.484;2024-01-30T03:41:14;102338.19;;;-0.05;88.07
83697;BME280;73677;54.530;18.484;2024-01-30T03:43:43;102354.28;;;-0.15;87.87
83697;BME280;73677;54.530;18.484;2024-01-30T03:46:12;102341.00;;;-0.29;88.30
83697;BME280;73677;54.530;18.484;2024-01-30T03:48:42;102338.03;;;-0.37;88.83
83697;BME280;73677;54.530;18.484;2024-01-30T03:51:11;102348.34;;;-0.42;89.10
83697;BME280;73677;54.530;18.484;2024-01-30T03:53:42;102359.13;;;-0.42;88.76
83697;BME280;73677;54.530;18.484;2024-01-30T03:56:10;102350.50;;;-0.47;89.06
83697;BME280;73677;54.530;18.484;2024-01-30T03:58:40;102351.03;;;-0.42;90.02
83697;BME280;73677;54.530;18.484;2024-01-30T04:01:13;102350.44;;;-0.34;90.02
83697;BME280;73677;54.530;18.484;2024-01-30T04:03:43;102290.75;;;-0.77;89.28
83697;BME280;73677;54.530;18.484;2024-01-30T04:06:12;102346.34;;;-0.40;90.20
83697;BME280;73677;54.530;18.484;2024-01-30T04:08:41;102339.72;;;-0.36;89.83
83697;BME280;73677;54.530;18.484;2024-01-30T04:11:10;102341.34;;;-0.33;89.86
83697;BME280;73677;54.530;18.484;2024-01-30T04:13:38;102320.56;;;-0.44;89.83
83697;BME280;73677;54.530;18.484;2024-01-30T04:16:07;102347.38;;;-0.30;89.77
83697;BME280;73677;54.530;18.484;2024-01-30T04:18:36;102337.44;;;-0.18;88.85
83697;BME280;73677;54.530;18.484;2024-01-30T04:21:06;102335.16;;;-0.01;89.33
83697;BME280;73677;54.530;18.484;2024-01-30T04:23:35;102356.31;;;0.39;87.58
83697;BME280;73677;54.530;18.484;2024-01-30T04:26:03;102349.53;;;0.56;86.99
83697;BME280;73677;54.530;18.484;2024-01-30T04:28:32;102351.59;;;0.74;85.91
83697;BME280;73677;54.530;18.484;2024-01-30T04:31:01;102345.78;;;0.90;85.16
83697;BME280;73677;54.530;18.484;2024-01-30T04:33:30;102336.28;;;1.07;84.17
83697;BME280;73677;54.530;18.484;2024-01-30T04:35:58;102339.69;;;1.20;83.47
83697;BME280;73677;54.530;18.484;2024-01-30T04:38:29;102334.69;;;1.36;82.40
83697;BME280;73677;54.530;18.484;2024-01-30T04:40:57;102337.16;;;1.39;82.73
83697;BME280;73677;54.530;18.484;2024-01-30T04:43:26;102329.50;;;1.44;81.96
83697;BME280;73677;54.530;18.484;2024-01-30T04:45:55;102337.22;;;1.49;81.75
83697;BME280;73677;54.530;18.484;2024-01-30T04:48:24;102330.31;;;1.56;81.67
83697;BME280;73677;54.530;18.484;2024-01-30T04:50:52;102321.91;;;1.59;81.41
83697;BME280;73677;54.530;18.484;2024-01-30T04:53:21;102321.38;;;1.65;81.21
83697;BME280;73677;54.530;18.484;2024-01-30T04:55:51;102322.88;;;1.58;81.02
83697;BME280;73677;54.530;18.484;2024-01-30T04:58:20;102331.28;;;1.55;81.09
83697;BME280;73677;54.530;18.484;2024-01-30T05:00:49;102306.81;;;1.45;81.43
83697;BME280;73677;54.530;18.484;2024-01-30T05:03:19;102325.59;;;1.58;81.45
83697;BME280;73677;54.530;18.484;2024-01-30T05:05:49;102332.53;;;1.51;81.22
83697;BME280;73677;54.530;18.484;2024-01-30T05:08:18;102329.44;;;1.55;81.12
83697;BME280;73677;54.530;18.484;2024-01-30T05:10:47;102332.16;;;1.55;81.61
83697;BME280;73677;54.530;18.484;2024-01-30T05:13:17;102309.19;;;1.07;80.96
83697;BME280;73677;54.530;18.484;2024-01-30T05:15:46;102331.69;;;1.50;81.36
83697;BME280;73677;54.530;18.484;2024-01-30T05:18:15;102334.25;;;1.52;81.38
83697;BME280;73677;54.530;18.484;2024-01-30T05:20:43;102253.19;;;1.07;81.26
83697;BME280;73677;54.530;18.484;2024-01-30T05:23:12;102333.13;;;1.54;81.46
83697;BME280;73677;54.530;18.484;2024-01-30T05:25:41;102329.78;;;1.62;80.70
83697;BME280;73677;54.530;18.484;2024-01-30T05:28:11;102325.06;;;1.64;81.08
83697;BME280;73677;54.530;18.484;2024-01-30T05:30:41;102321.31;;;1.55;80.48
83697;BME280;73677;54.530;18.484;2024-01-30T05:33:10;102311.25;;;1.46;81.28
83697;BME280;73677;54.530;18.484;2024-01-30T05:35:39;102317.66;;;1.45;81.42
83697;BME280;73677;54.530;18.484;2024-01-30T05:38:16;102293.34;;;1.34;81.58
83697;BME280;73677;54.530;18.484;2024-01-30T05:40:45;102321.94;;;1.48;81.57
83697;BME280;73677;54.530;18.484;2024-01-30T05:43:14;102328.22;;;1.48;81.95
83697;BME280;73677;54.530;18.484;2024-01-30T05:45:44;102349.03;;;1.48;81.67
83697;BME280;73677;54.530;18.484;2024-01-30T05:48:13;102345.03;;;1.31;82.31
83697;BME280;73677;54.530;18.484;2024-01-30T05:50:41;102355.88;;;1.31;82.61
83697;BME280;73677;54.530;18.484;2024-01-30T05:53:10;102347.97;;;1.39;82.12
83697;BME280;73677;54.530;18.484;2024-01-30T05:55:39;102358.03;;;1.48;81.63
83697;BME280;73677;54.530;18.484;2024-01-30T05:58:08;102344.28;;;1.40;81.49
83697;BME280;73677;54.530;18.484;2024-01-30T06:00:36;102350.22;;;1.34;82.41
83697;BME280;73677;54.530;18.484;2024-01-30T06:03:07;102346.56;;;1.24;82.55
83697;BME280;73677;54.530;18.484;2024-01-30T06:05:36;102336.63;;;1.13;82.90
83697;BME280;73677;54.530;18.484;2024-01-30T06:08:05;102349.19;;;1.14;82.76
83697;BME280;73677;54.530;18.484;2024-01-30T06:10:34;102347.38;;;1.04;83.43
83697;BME280;73677;54.530;18.484;2024-01-30T06:13:03;102344.69;;;0.93;83.88
83697;BME280;73677;54.530;18.484;2024-01-30T06:15:32;102349.75;;;0.86;84.58
83697;BME280;73677;54.530;18.484;2024-01-30T06:18:01;102349.66;;;0.76;85.34
83697;BME280;73677;54.530;18.484;2024-01-30T06:20:31;102350.53;;;0.66;85.16
83697;BME280;73677;54.530;18.484;2024-01-30T06:23:00;102343.75;;;0.60;86.37
83697;BME280;73677;54.530;18.484;2024-01-30T06:25:28;102336.41;;;0.51;85.93
83697;BME280;73677;54.530;18.484;2024-01-30T06:27:57;102350.03;;;0.61;86.57
83697;BME280;73677;54.530;18.484;2024-01-30T06:30:26;102342.28;;;0.56;86.36
83697;BME280;73677;54.530;18.484;2024-01-30T06:32:54;102349.28;;;0.48;86.00
83697;BME280;73677;54.530;18.484;2024-01-30T06:35:25;102345.88;;;0.46;86.90
83697;BME280;73677;54.530;18.484;2024-01-30T06:37:55;102340.19;;;0.49;87.03
83697;BME280;73677;54.530;18.484;2024-01-30T06:40:24;102334.66;;;0.50;87.29
83697;BME280;73677;54.530;18.484;2024-01-30T06:42:53;102331.09;;;0.50;86.74
83697;BME280;73677;54.530;18.484;2024-01-30T06:45:21;102345.13;;;0.43;86.73
83697;BME280;73677;54.530;18.484;2024-01-30T06:47:50;102347.94;;;0.42;86.90
83697;BME280;73677;54.530;18.484;2024-01-30T06:50:19;102356.06;;;0.42;86.85
83697;BME280;73677;54.530;18.484;2024-01-30T06:52:48;102351.00;;;0.49;87.23
83697;BME280;73677;54.530;18.484;2024-01-30T06:55:18;102341.66;;;0.53;86.55
83697;BME280;73677;54.530;18.484;2024-01-30T06:57:47;102332.19;;;0.69;86.26
83697;BME280;73677;54.530;18.484;2024-01-30T07:00:18;102329.03;;;0.96;84.88
83697;BME280;73677;54.530;18.484;2024-01-30T07:02:47;102316.44;;;1.17;83.63
83697;BME280;73677;54.530;18.484;2024-01-30T07:05:16;102316.22;;;1.41;82.32
83697;BME280;73677;54.530;18.484;2024-01-30T07:07:45;102309.72;;;1.53;81.67
83697;BME280;73677;54.530;18.484;2024-01-30T07:10:14;102297.72;;;1.46;81.23
83697;BME280;73677;54.530;18.484;2024-01-30T07:12:44;102255.13;;;1.16;81.02
83697;BME280;73677;54.530;18.484;2024-01-30T07:15:13;102324.03;;;1.55;82.31
83697;BME280;73677;54.530;18.484;2024-01-30T07:17:44;102313.16;;;1.35;81.90
83697;BME280;73677;54.530;18.484;2024-01-30T07:20:13;102320.56;;;1.53;82.44
83697;BME280;73677;54.530;18.484;2024-01-30T07:22:44;102323.03;;;1.56;82.43
83697;BME280;73677;54.530;18.484;2024-01-30T07:25:13;102333.47;;;1.82;80.95
83697;BME280;73677;54.530;18.484;2024-01-30T07:27:42;102312.31;;;1.76;80.74
83697;BME280;73677;54.530;18.484;2024-01-30T07:30:13;102329.09;;;1.90;80.88
83697;BME280;73677;54.530;18.484;2024-01-30T07:32:44;102327.84;;;1.94;80.39
83697;BME280;73677;54.530;18.484;2024-01-30T07:35:13;102321.47;;;2.05;80.16
83697;BME280;73677;54.530;18.484;2024-01-30T07:37:42;102314.16;;;1.96;80.41
83697;BME280;73677;54.530;18.484;2024-01-30T07:40:10;102320.53;;;2.16;79.68
83697;BME280;73677;54.530;18.484;2024-01-30T07:42:40;102315.31;;;2.24;79.26
83697;BME280;73677;54.530;18.484;2024-01-30T07:45:12;102325.47;;;2.31;78.83
83697;BME280;73677;54.530;18.484;2024-01-30T07:47:41;102306.09;;;2.15;79.11
83697;BME280;73677;54.530;18.484;2024-01-30T07:50:10;102334.22;;;2.35;79.24
83697;BME280;73677;54.530;18.484;2024-01-30T07:52:39;102329.47;;;2.37;79.90
83697;BME280;73677;54.530;18.484;2024-01-30T07:55:08;102331.78;;;2.41;79.59
83697;BME280;73677;54.530;18.484;2024-01-30T07:57:38;102329.69;;;2.45;79.06
83697;BME280;73677;54.530;18.484;2024-01-30T08:00:07;102330.13;;;2.50;78.73
83697;BME280;73677;54.530;18.484;2024-01-30T08:02:37;102308.22;;;2.42;78.63
83697;BME280;73677;54.530;18.484;2024-01-30T08:05:06;102339.59;;;2.65;77.22
83697;BME280;73677;54.530;18.484;2024-01-30T08:07:37;102328.03;;;2.73;77.70
83697;BME280;73677;54.530;18.484;2024-01-30T08:10:06;102335.38;;;2.82;77.63
83697;BME280;73677;54.530;18.484;2024-01-30T08:12:35;102285.56;;;2.62;76.58
83697;BME280;73677;54.530;18.484;2024-01-30T08:15:04;102332.81;;;2.99;76.76
83697;BME280;73677;54.530;18.484;2024-01-30T08:17:33;102339.28;;;3.08;76.28
83697;BME280;73677;54.530;18.484;2024-01-30T08:20:04;102330.13;;;3.09;76.63
83697;BME280;73677;54.530;18.484;2024-01-30T08:22:33;102336.41;;;3.19;77.17
83697;BME280;73677;54.530;18.484;2024-01-30T08:25:01;102315.53;;;3.10;76.11
83697;BME280;73677;54.530;18.484;2024-01-30T08:27:30;102338.00;;;3.31;76.67
83697;BME280;73677;54.530;18.484;2024-01-30T08:29:58;102316.28;;;3.22;76.40
83697;BME280;73677;54.530;18.484;2024-01-30T08:32:28;102306.25;;;3.32;76.30
83697;BME280;73677;54.530;18.484;2024-01-30T08:34:56;102329.88;;;3.51;75.38
83697;BME280;73677;54.530;18.484;2024-01-30T08:37:26;102329.16;;;3.58;75.90
83697;BME280;73677;54.530;18.484;2024-01-30T08:39:55;102331.28;;;3.74;74.83
83697;BME280;73677;54.530;18.484;2024-01-30T08:42:24;102299.06;;;3.79;74.23
83697;BME280;73677;54.530;18.484;2024-01-30T08:44:52;102316.06;;;4.00;73.50
83697;BME280;73677;54.530;18.484;2024-01-30T08:47:21;102320.16;;;4.23;73.94
83697;BME280;73677;54.530;18.484;2024-01-30T08:49:49;102288.59;;;4.31;73.41
83697;BME280;73677;54.530;18.484;2024-01-30T08:52:18;102320.97;;;4.88;71.88
83697;BME280;73677;54.530;18.484;2024-01-30T08:54:48;102318.22;;;5.16;70.33
83697;BME280;73677;54.530;18.484;2024-01-30T08:57:17;102319.16;;;5.42;69.67
83697;BME280;73677;54.530;18.484;2024-01-30T08:59:45;102320.56;;;5.46;68.89
83697;BME280;73677;54.530;18.484;2024-01-30T09:02:14;102321.16;;;5.75;69.32
83697;BME280;73677;54.530;18.484;2024-01-30T09:04:43;102313.53;;;5.97;67.81
83697;BME280;73677;54.530;18.484;2024-01-30T09:07:12;102274.75;;;6.19;66.39
83697;BME280;73677;54.530;18.484;2024-01-30T09:09:41;102307.31;;;6.80;65.04
83697;BME280;73677;54.530;18.484;2024-01-30T09:12:11;102294.91;;;7.10;63.85
83697;BME280;73677;54.530;18.484;2024-01-30T09:14:40;102303.16;;;7.91;63.05
83697;BME280;73677;54.530;18.484;2024-01-30T09:17:08;102292.34;;;8.30;60.86
83697;BME280;73677;54.530;18.484;2024-01-30T09:19:37;102283.41;;;8.36;59.88
83697;BME280;73677;54.530;18.484;2024-01-30T09:22:06;102274.97;;;8.45;59.55
83697;BME280;73677;54.530;18.484;2024-01-30T09:24:35;102278.47;;;8.31;59.49
83697;BME280;73677;54.530;18.484;2024-01-30T09:27:04;102272.25;;;8.37;59.99
83697;BME280;73677;54.530;18.484;2024-01-30T09:29:34;102250.84;;;8.41;56.88
83697;BME280;73677;54.530;18.484;2024-01-30T09:32:05;102272.19;;;8.54;58.99
83697;BME280;73677;54.530;18.484;2024-01-30T09:34:33;102272.88;;;8.56;59.38
83697;BME280;73677;54.530;18.484;2024-01-30T09:37:03;102269.13;;;9.18;58.18
83697;BME280;73677;54.530;18.484;2024-01-30T09:39:32;102261.16;;;9.31;56.87
83697;BME280;73677;54.530;18.484;2024-01-30T09:42:03;102250.75;;;9.79;55.73
83697;BME280;73677;54.530;18.484;2024-01-30T09:44:35;102240.41;;;10.33;52.72
83697;BME280;73677;54.530;18.484;2024-01-30T09:47:04;102217.50;;;11.34;50.05
83697;BME280;73677;54.530;18.484;2024-01-30T09:49:34;102214.84;;;10.83;48.93
83697;BME280;73677;54.530;18.484;2024-01-30T09:52:03;102213.94;;;10.61;51.05
83697;BME280;73677;54.530;18.484;2024-01-30T09:54:34;102250.72;;;10.02;51.98
83697;BME280;73677;54.530;18.484;2024-01-30T09:57:04;102248.97;;;10.24;51.42
83697;BME280;73677;54.530;18.484;2024-01-30T09:59:32;102248.13;;;9.48;52.79
83697;BME280;73677;54.530;18.484;2024-01-30T10:02:02;102252.81;;;9.62;52.81
83697;BME280;73677;54.530;18.484;2024-01-30T10:04:31;102248.47;;;9.68;52.92
83697;BME280;73677;54.530;18.484;2024-01-30T10:07:01;102227.69;;;9.51;52.41
83697;BME280;73677;54.530;18.484;2024-01-30T10:09:32;102245.34;;;9.71;52.76
83697;BME280;73677;54.530;18.484;2024-01-30T10:12:02;102233.34;;;9.87;52.49
83697;BME280;73677;54.530;18.484;2024-01-30T10:14:31;102227.41;;;10.12;51.41
83697;BME280;73677;54.530;18.484;2024-01-30T10:17:02;102222.88;;;9.07;53.78
83697;BME280;73677;54.530;18.484;2024-01-30T10:19:43;102232.34;;;9.27;53.73
83697;BME280;73677;54.530;18.484;2024-01-30T10:22:12;102165.81;;;8.80;53.81
83697;BME280;73677;54.530;18.484;2024-01-30T10:24:41;102235.50;;;9.39;54.02
83697;BME280;73677;54.530;18.484;2024-01-30T10:27:09;102226.38;;;9.47;53.90
83697;BME280;73677;54.530;18.484;2024-01-30T10:29:38;102234.97;;;9.21;54.91
83697;BME280;73677;54.530;18.484;2024-01-30T10:32:08;102215.00;;;9.50;54.02
83697;BME280;73677;54.530;18.484;2024-01-30T10:34:36;102220.72;;;9.63;53.61
83697;BME280;73677;54.530;18.484;2024-01-30T10:37:08;102216.59;;;9.96;52.43
83697;BME280;73677;54.530;18.484;2024-01-30T10:39:40;102208.47;;;10.32;52.54
83697;BME280;73677;54.530;18.484;2024-01-30T10:42:12;102184.50;;;10.41;51.11
83697;BME280;73677;54.530;18.484;2024-01-30T10:44:46;102203.41;;;10.65;51.19
83697;BME280;73677;54.530;18.484;2024-01-30T10:47:26;102202.31;;;10.45;51.24
83697;BME280;73677;54.530;18.484;2024-01-30T10:49:55;102202.50;;;9.99;52.64
83697;BME280;73677;54.530;18.484;2024-01-30T10:52:25;102202.72;;;9.60;53.98
83697;BME280;73677;54.530;18.484;2024-01-30T10:54:55;102185.41;;;9.60;53.94
83697;BME280;73677;54.530;18.484;2024-01-30T10:57:25;102200.44;;;9.64;54.25
83697;BME280;73677;54.530;18.484;2024-01-30T10:59:56;102180.47;;;9.55;53.89
83697;BME280;73677;54.530;18.484;2024-01-30T11:02:28;102205.31;;;9.91;54.10
83697;BME280;73677;54.530;18.484;2024-01-30T11:04:58;102194.91;;;10.01;53.99
83697;BME280;73677;54.530;18.484;2024-01-30T11:07:29;102200.97;;;9.82;54.34
83697;BME280;73677;54.530;18.484;2024-01-30T11:10:03;102205.50;;;9.90;53.99
83697;BME280;73677;54.530;18.484;2024-01-30T11:12:38;102206.06;;;9.85;54.53
83697;BME280;73677;54.530;18.484;2024-01-30T11:15:09;102202.09;;;9.88;54.50
83697;BME280;73677;54.530;18.484;2024-01-30T11:17:44;102193.69;;;10.04;54.41
83697;BME280;73677;54.530;18.484;2024-01-30T11:20:15;102186.31;;;10.34;54.10
83697;BME280;73677;54.530;18.484;2024-01-30T11:22:45;102163.66;;;10.89;52.43
83697;BME280;73677;54.530;18.484;2024-01-30T11:25:14;102170.69;;;11.13;52.15
83697;BME280;73677;54.530;18.484;2024-01-30T11:27:45;102161.16;;;11.36;52.13
83697;BME280;73677;54.530;18.484;2024-01-30T11:30:21;102157.72;;;11.28;53.20
83697;BME280;73677;54.530;18.484;2024-01-30T11:33:06;102152.66;;;11.59;53.16
83697;BME280;73677;54.530;18.484;2024-01-30T11:35:37;102156.78;;;11.21;53.92
83697;BME280;73677;54.530;18.484;2024-01-30T11:38:07;102159.81;;;11.04;54.48
83697;BME280;73677;54.530;18.484;2024-01-30T11:40:39;102147.03;;;10.97;54.83
83697;BME280;73677;54.530;18.484;2024-01-30T11:43:08;102151.78;;;11.31;54.53
83697;BME280;73677;54.530;18.484;2024-01-30T11:45:37;102153.22;;;10.99;55.82
83697;BME280;73677;54.530;18.484;2024-01-30T11:48:08;102157.88;;;10.98;56.38
83697;BME280;73677;54.530;18.484;2024-01-30T11:50:40;102156.19;;;10.61;57.62
83697;BME280;73677;54.530;18.484;2024-01-30T11:53:09;102146.47;;;10.44;58.05
83697;BME280;73677;54.530;18.484;2024-01-30T11:55:37;102153.22;;;10.12;59.46
83697;BME280;73677;54.530;18.484;2024-01-30T11:58:06;102153.13;;;10.20;59.60
83697;BME280;73677;54.530;18.484;2024-01-30T12:00:35;102154.47;;;10.10;60.29
83697;BME280;73677;54.530;18.484;2024-01-30T12:03:04;102150.09;;;10.01;59.95
83697;BME280;73677;54.530;18.484;2024-01-30T12:05:36;102125.50;;;9.78;59.05
83697;BME280;73677;54.530;18.484;2024-01-30T12:08:14;102144.88;;;10.06;58.98
83697;BME280;73677;54.530;18.484;2024-01-30T12:10:42;102138.16;;;9.79;58.68
83697;BME280;73677;54.530;18.484;2024-01-30T12:13:11;102138.94;;;9.88;59.17
83697;BME280;73677;54.530;18.484;2024-01-30T12:15:40;102143.09;;;9.98;59.13
83697;BME280;73677;54.530;18.484;2024-01-30T12:18:09;102139.41;;;9.91;58.53
83697;BME280;73677;54.530;18.484;2024-01-30T12:20:39;102108.28;;;10.05;57.54
83697;BME280;73677;54.530;18.484;2024-01-30T12:23:08;102133.06;;;10.20;58.07
83697;BME280;73677;54.530;18.484;2024-01-30T12:25:36;102081.63;;;9.85;58.04
83697;BME280;73677;54.530;18.484;2024-01-30T12:28:05;102139.78;;;10.17;57.90
83697;BME280;73677;54.530;18.484;2024-01-30T12:30:34;102151.31;;;10.13;58.59
83697;BME280;73677;54.530;18.484;2024-01-30T12:33:03;102089.69;;;9.57;57.49
83697;BME280;73677;54.530;18.484;2024-01-30T12:35:36;102130.78;;;9.94;56.99
83697;BME280;73677;54.530;18.484;2024-01-30T12:38:19;102135.03;;;9.67;56.86
83697;BME280;73677;54.530;18.484;2024-01-30T12:40:48;102139.75;;;9.59;56.98
83697;BME280;73677;54.530;18.484;2024-01-30T12:43:17;102124.75;;;9.32;56.78
83697;BME280;73677;54.530;18.484;2024-01-30T12:45:58;102130.72;;;9.21;57.42
83697;BME280;73677;54.530;18.484;2024-01-30T12:48:28;102118.34;;;9.02;57.47
83697;BME280;73677;54.530;18.484;2024-01-30T12:50:57;102134.22;;;8.92;56.53
83697;BME280;73677;54.530;18.484;2024-01-30T12:53:27;102135.19;;;8.76;57.16
83697;BME280;73677;54.530;18.484;2024-01-30T12:55:56;102137.38;;;8.81;56.82
83697;BME280;73677;54.530;18.484;2024-01-30T12:58:25;102138.06;;;8.83;57.27
83697;BME280;73677;54.530;18.484;2024-01-30T13:00:53;102133.81;;;8.95;57.21